Time;durP1;ratioP1;P1;durP2;ratioP2;P2;SDS_P1;SDS_P2;PMS_P1;PMS_P2;Temp;Humidity;BMP_temperature;BMP_pressure;BME280_temperature;BME280_humidity;BME280_pressure;Samples;Min_cycle;Max_cycle;Signal;HPM_P1;HPM_P2
2023/04/16 00:02:13;;;;;;;47.33;21.63;;;9.00;99.90;;;;;;4773026;30;20510;-83
2023/04/16 00:04:38;;;;;;;52.43;22.40;;;9.00;99.90;;;;;;4773168;30;20293;-84
2023/04/16 00:07:04;;;;;;;52.80;22.87;;;9.00;99.90;;;;;;4773244;30;20361;-84
2023/04/16 00:09:30;;;;;;;46.17;21.37;;;9.00;99.90;;;;;;4743354;30;20051;-83
2023/04/16 00:11:55;;;;;;;46.53;21.53;;;9.00;99.90;;;;;;4758288;30;20072;-84
2023/04/16 00:14:21;;;;;;;49.37;22.00;;;9.00;99.90;;;;;;4773800;30;20051;-84
2023/04/16 00:16:47;;;;;;;47.43;21.60;;;9.00;99.90;;;;;;4758198;30;20090;-83
2023/04/16 00:19:13;;;;;;;39.60;20.00;;;9.00;99.90;;;;;;4743262;30;20055;-84
2023/04/16 00:21:38;;;;;;;44.80;21.13;;;9.00;99.90;;;;;;4772654;30;20059;-84
2023/04/16 00:24:04;;;;;;;43.93;20.90;;;9.00;99.90;;;;;;4773189;30;20116;-84
2023/04/16 00:26:30;;;;;;;49.73;22.03;;;9.00;99.90;;;;;;4758142;30;20141;-84
2023/04/16 00:28:56;;;;;;;48.60;21.70;;;9.00;99.90;;;;;;4757980;30;20043;-84
2023/04/16 00:31:29;;;;;;;45.33;22.17;;;9.00;99.90;;;;;;4772774;30;20051;-84
2023/04/16 00:33:55;;;;;;;47.27;21.23;;;9.00;99.90;;;;;;4758100;30;20051;-83
2023/04/16 00:36:28;;;;;;;45.53;21.70;;;9.00;99.90;;;;;;4773255;30;20293;-85
2023/04/16 00:38:55;;;;;;;48.10;20.73;;;9.00;99.90;;;;;;4758376;30;20658;-84
2023/04/16 00:41:21;;;;;;;44.57;20.73;;;9.00;99.90;;;;;;4772649;30;20293;-85
2023/04/16 00:43:48;;;;;;;50.73;22.83;;;9.00;99.90;;;;;;4758013;30;20332;-84
2023/04/16 00:46:15;;;;;;;47.50;21.90;;;9.00;99.90;;;;;;4757970;30;20293;-84
2023/04/16 00:48:43;;;;;;;45.33;21.90;;;9.00;99.90;;;;;;4757679;30;20400;-83
2023/04/16 00:51:09;;;;;;;49.00;21.73;;;9.00;99.90;;;;;;4758530;30;20305;-84
2023/04/16 00:53:35;;;;;;;45.33;22.00;;;9.00;99.90;;;;;;4757437;30;20769;-84
2023/04/16 00:56:06;;;;;;;44.97;21.43;;;9.00;99.90;;;;;;4757891;30;20304;-84
2023/04/16 00:58:33;;;;;;;54.33;22.67;;;9.00;99.90;;;;;;4772586;30;20794;-84
2023/04/16 01:01:00;;;;;;;44.93;20.27;;;9.00;99.90;;;;;;4757950;30;20296;-83
2023/04/16 01:03:39;;;;;;;53.30;22.03;;;9.00;99.90;;;;;;4757731;30;20342;-84
2023/04/16 01:06:08;;;;;;;47.93;22.03;;;9.00;99.90;;;;;;4773262;30;20296;-84
2023/04/16 01:08:34;;;;;;;48.20;21.53;;;9.00;99.90;;;;;;4757942;30;20313;-84
2023/04/16 01:11:00;;;;;;;46.37;20.10;;;9.00;99.90;;;;;;4772334;30;20296;-83
2023/04/16 01:13:26;;;;;;;45.27;20.87;;;9.00;99.90;;;;;;4758359;30;20297;-84
2023/04/16 01:15:51;;;;;;;42.37;20.67;;;9.00;99.90;;;;;;4773078;30;20381;-84
2023/04/16 01:18:19;;;;;;;37.47;20.13;;;9.00;99.90;;;;;;4757600;30;20055;-83
2023/04/16 01:20:46;;;;;;;35.63;21.10;;;9.00;99.90;;;;;;4761321;30;20160;-84
2023/04/16 01:23:12;;;;;;;39.03;20.20;;;8.90;99.90;;;;;;4776633;30;20296;-84
2023/04/16 01:25:38;;;;;;;42.73;20.53;;;8.90;99.90;;;;;;4776123;30;20299;-84
2023/04/16 01:28:05;;;;;;;39.80;20.70;;;8.90;99.90;;;;;;4775866;30;20667;-84
2023/04/16 01:30:30;;;;;;;41.90;21.00;;;8.90;99.90;;;;;;4776214;30;20324;-84
2023/04/16 01:32:56;;;;;;;37.90;19.47;;;8.90;99.90;;;;;;4775994;30;20293;-84
2023/04/16 01:35:23;;;;;;;35.70;19.30;;;9.00;99.90;;;;;;4775419;30;20511;-84
2023/04/16 01:37:49;;;;;;;38.07;19.47;;;8.90;99.90;;;;;;4776484;30;20090;-84
2023/04/16 01:40:16;;;;;;;38.70;21.13;;;8.90;99.90;;;;;;4760849;30;20299;-84
2023/04/16 01:42:41;;;;;;;39.77;19.47;;;8.90;99.90;;;;;;4761510;30;20297;-84
2023/04/16 01:45:07;;;;;;;42.73;19.17;;;8.90;99.90;;;;;;4775776;30;20856;-84
2023/04/16 01:47:33;;;;;;;35.80;19.00;;;8.90;99.90;;;;;;4775404;30;20056;-84
2023/04/16 01:50:01;;;;;;;36.77;19.70;;;8.90;99.90;;;;;;4791772;30;20373;-84
2023/04/16 01:52:27;;;;;;;41.00;19.63;;;8.90;99.90;;;;;;4775420;30;20528;-84
2023/04/16 01:54:52;;;;;;;41.30;19.07;;;8.90;99.90;;;;;;4774767;30;20347;-84
2023/04/16 01:57:18;;;;;;;39.07;19.67;;;8.90;99.90;;;;;;4746141;30;20059;-84
2023/04/16 01:59:44;;;;;;;41.00;20.13;;;8.90;99.90;;;;;;4775550;30;20154;-84
2023/04/16 02:02:11;;;;;;;43.90;21.23;;;8.90;99.90;;;;;;4760567;30;20099;-84
2023/04/16 02:04:38;;;;;;;38.77;21.30;;;8.80;99.90;;;;;;4775221;30;20396;-84
2023/04/16 02:07:05;;;;;;;47.43;21.63;;;8.80;99.90;;;;;;4760743;30;20297;-84
2023/04/16 02:09:33;;;;;;;51.00;22.27;;;8.90;99.90;;;;;;4775632;30;20319;-85
2023/04/16 02:11:59;;;;;;;42.60;21.70;;;8.90;99.90;;;;;;4791500;30;20289;-84
2023/04/16 02:14:24;;;;;;;45.40;22.10;;;8.80;99.90;;;;;;4774867;30;20661;-84
2023/04/16 02:16:50;;;;;;;43.50;19.93;;;8.80;99.90;;;;;;4760506;30;20067;-84
2023/04/16 02:19:17;;;;;;;50.37;20.87;;;8.90;99.90;;;;;;4760144;30;20106;-84
2023/04/16 02:21:42;;;;;;;48.77;20.93;;;8.90;99.90;;;;;;4760978;30;20332;-83
2023/04/16 02:24:08;;;;;;;50.63;22.70;;;8.80;99.90;;;;;;4775053;30;20340;-84
2023/04/16 02:26:34;;;;;;;49.17;22.70;;;8.80;99.90;;;;;;4760097;30;20086;-84
2023/04/16 02:29:00;;;;;;;47.30;22.00;;;8.90;99.90;;;;;;4760672;30;20047;-84
2023/04/16 02:31:27;;;;;;;50.50;20.70;;;8.90;99.90;;;;;;4760236;30;20058;-84
2023/04/16 02:33:53;;;;;;;57.43;23.97;;;8.90;99.90;;;;;;4759597;30;20305;-84
2023/04/16 02:36:19;;;;;;;52.20;22.07;;;8.90;99.90;;;;;;4774800;30;20361;-84
2023/04/16 02:38:45;;;;;;;59.67;23.27;;;8.90;99.90;;;;;;4774651;30;20699;-84
2023/04/16 02:41:10;;;;;;;49.17;21.40;;;8.90;99.90;;;;;;4759880;30;20055;-84
2023/04/16 02:43:36;;;;;;;46.80;21.33;;;8.90;99.90;;;;;;4759602;30;20055;-84
2023/04/16 02:46:02;;;;;;;55.30;23.53;;;8.80;99.90;;;;;;4759784;30;20046;-83
2023/04/16 02:48:28;;;;;;;52.60;23.67;;;8.90;99.90;;;;;;4774296;30;20134;-83
2023/04/16 02:50:53;;;;;;;53.03;23.30;;;8.90;99.90;;;;;;4759609;30;20141;-84
2023/04/16 02:53:20;;;;;;;50.80;23.67;;;8.90;99.90;;;;;;4745489;29;20051;-83
2023/04/16 02:55:53;;;;;;;41.63;22.40;;;8.90;99.90;;;;;;4759992;30;20078;-84
2023/04/16 02:58:24;;;;;;;51.13;24.00;;;8.90;99.90;;;;;;4774744;30;20293;-84
2023/04/16 03:00:51;;;;;;;52.17;24.90;;;8.80;99.90;;;;;;4760204;30;20313;-84
2023/04/16 03:03:17;;;;;;;50.30;24.27;;;8.80;99.90;;;;;;4774364;30;20320;-84
2023/04/16 03:05:43;;;;;;;50.27;24.43;;;8.80;99.90;;;;;;4774395;30;20297;-84
2023/04/16 03:08:09;;;;;;;46.77;22.40;;;8.80;99.90;;;;;;4774280;30;20378;-83
2023/04/16 03:10:35;;;;;;;49.47;23.87;;;8.80;99.90;;;;;;4760096;30;20297;-84
2023/04/16 03:13:02;;;;;;;48.57;24.33;;;8.80;99.90;;;;;;4790065;30;20366;-84
2023/04/16 03:15:28;;;;;;;45.03;23.87;;;8.80;99.90;;;;;;4759399;30;20296;-84
2023/04/16 03:17:54;;;;;;;59.93;26.33;;;8.80;99.90;;;;;;4760099;30;20301;-84
2023/04/16 03:20:19;;;;;;;59.50;26.13;;;8.80;99.90;;;;;;4773944;30;20303;-84
2023/04/16 03:22:46;;;;;;;58.77;27.67;;;8.80;99.90;;;;;;4773952;30;20059;-84
2023/04/16 03:25:12;;;;;;;49.87;25.33;;;8.80;99.90;;;;;;4773914;30;20137;-84
2023/04/16 03:27:39;;;;;;;54.33;26.63;;;8.80;99.90;;;;;;4773570;30;20297;-86
2023/04/16 03:30:10;;;;;;;58.73;27.03;;;8.80;99.90;;;;;;4773543;30;20335;-84
2023/04/16 03:32:37;;;;;;;58.60;26.30;;;8.80;99.90;;;;;;4759845;30;20328;-84
2023/04/16 03:35:04;;;;;;;43.90;23.63;;;8.80;99.90;;;;;;4759280;30;20308;-85
2023/04/16 03:37:30;;;;;;;61.53;23.80;;;8.90;99.90;;;;;;4758936;30;20333;-83
2023/04/16 03:39:55;;;;;;;49.40;23.53;;;8.90;99.90;;;;;;4758933;30;20301;-83
2023/04/16 03:42:21;;;;;;;52.53;24.60;;;8.90;99.90;;;;;;4758654;30;20638;-84
2023/04/16 03:44:47;;;;;;;52.50;23.67;;;8.80;99.90;;;;;;4773562;30;20054;-84
2023/04/16 03:47:12;;;;;;;56.63;23.77;;;8.80;99.90;;;;;;4773583;30;20043;-84
2023/04/16 03:49:38;;;;;;;46.30;22.73;;;8.80;99.90;;;;;;4758240;30;20436;-84
2023/04/16 03:52:04;;;;;;;50.17;22.83;;;8.80;99.90;;;;;;4759135;30;20055;-84
2023/04/16 03:54:30;;;;;;;53.40;22.67;;;8.80;99.90;;;;;;4758536;30;20493;-84
2023/04/16 03:56:55;;;;;;;48.60;23.20;;;8.80;99.90;;;;;;4773159;30;20099;-84
2023/04/16 03:59:21;;;;;;;47.67;23.20;;;8.80;99.90;;;;;;4743879;30;20055;-84
2023/04/16 04:01:47;;;;;;;48.07;21.87;;;8.80;99.90;;;;;;4773231;30;20390;-84
2023/04/16 04:04:13;;;;;;;42.50;22.17;;;8.80;99.90;;;;;;4758122;30;20112;-84
2023/04/16 04:06:39;;;;;;;41.47;20.43;;;8.80;99.90;;;;;;4773183;30;20058;-84
2023/04/16 04:09:05;;;;;;;43.67;21.00;;;8.80;99.90;;;;;;4772995;30;20317;-84
2023/04/16 04:11:31;;;;;;;47.33;21.17;;;8.80;99.90;;;;;;4758391;30;20051;-84
2023/04/16 04:13:57;;;;;;;40.03;21.33;;;8.80;99.90;;;;;;4758252;30;20134;-84
2023/04/16 04:16:23;;;;;;;47.40;22.13;;;8.80;99.90;;;;;;4772998;30;20396;-84
2023/04/16 04:18:49;;;;;;;46.40;21.57;;;8.90;99.90;;;;;;4772960;30;20063;-84
2023/04/16 04:21:15;;;;;;;58.07;22.67;;;8.90;99.90;;;;;;4758807;30;20062;-84
2023/04/16 04:23:41;;;;;;;47.83;23.70;;;8.90;99.90;;;;;;4773048;30;20043;-84
2023/04/16 04:26:07;;;;;;;53.83;24.73;;;8.90;99.90;;;;;;4772843;30;20292;-84
2023/04/16 04:28:34;;;;;;;58.37;24.37;;;8.90;99.90;;;;;;4772517;30;20348;-84
2023/04/16 04:31:00;;;;;;;51.30;23.10;;;8.90;99.90;;;;;;4758019;30;20304;-84
2023/04/16 04:33:26;;;;;;;47.67;22.83;;;8.90;99.90;;;;;;4758129;30;20378;-84
2023/04/16 04:35:53;;;;;;;45.97;23.13;;;8.90;99.90;;;;;;4773545;30;20293;-84
2023/04/16 04:38:20;;;;;;;50.27;22.00;;;8.90;99.90;;;;;;4773067;30;20346;-84
2023/04/16 04:40:47;;;;;;;51.43;22.13;;;8.90;99.90;;;;;;4758187;30;20354;-85
2023/04/16 04:43:13;;;;;;;48.83;23.40;;;8.90;99.90;;;;;;4772748;30;20717;-84
2023/04/16 04:45:39;;;;;;;55.87;23.17;;;8.90;99.90;;;;;;4758193;30;20380;-84
2023/04/16 04:48:05;;;;;;;55.47;22.20;;;9.00;99.90;;;;;;4773361;30;20419;-84
2023/04/16 04:50:31;;;;;;;54.13;21.93;;;9.00;99.90;;;;;;4758259;30;20305;-84
2023/04/16 04:52:57;;;;;;;55.50;23.47;;;9.00;99.90;;;;;;4772093;30;20477;-84
2023/04/16 04:55:22;;;;;;;57.77;24.67;;;9.00;99.90;;;;;;4757249;30;20159;-84
2023/04/16 04:57:49;;;;;;;52.23;22.37;;;9.00;99.90;;;;;;4772526;30;20108;-84
2023/04/16 05:00:14;;;;;;;55.20;22.63;;;9.00;99.90;;;;;;4772549;30;20057;-84
2023/04/16 05:02:41;;;;;;;53.73;21.67;;;9.00;99.90;;;;;;4772482;30;20384;-84
2023/04/16 05:05:07;;;;;;;41.30;21.03;;;9.00;99.90;;;;;;4757666;30;20059;-84
2023/04/16 05:07:33;;;;;;;49.07;21.47;;;9.00;99.90;;;;;;4788550;30;20300;-83
2023/04/16 05:09:58;;;;;;;48.70;21.33;;;9.10;99.90;;;;;;4757382;30;20662;-84
2023/04/16 05:12:24;;;;;;;50.67;21.37;;;9.10;99.90;;;;;;4757648;30;20055;-84
2023/04/16 05:14:50;;;;;;;53.37;21.47;;;9.10;99.90;;;;;;4772328;30;20059;-85
2023/04/16 05:17:16;;;;;;;51.63;20.77;;;9.10;99.90;;;;;;4757815;30;20047;-84
2023/04/16 05:19:41;;;;;;;54.93;20.67;;;9.10;99.90;;;;;;4757512;30;20128;-84
2023/04/16 05:22:07;;;;;;;46.10;19.63;;;9.10;99.90;;;;;;4771981;30;20052;-84
2023/04/16 05:24:33;;;;;;;45.37;19.63;;;9.20;99.90;;;;;;4772512;30;20051;-84
2023/04/16 05:26:58;;;;;;;49.13;19.50;;;9.20;99.90;;;;;;4757525;30;20051;-84
2023/04/16 05:29:24;;;;;;;45.73;19.40;;;9.20;99.90;;;;;;4772172;30;20055;-84
2023/04/16 05:31:51;;;;;;;49.23;20.00;;;9.20;99.90;;;;;;4757756;30;20109;-84
2023/04/16 05:34:17;;;;;;;54.73;21.53;;;9.20;99.90;;;;;;4771895;30;20293;-84
2023/04/16 05:36:43;;;;;;;51.90;21.67;;;9.20;99.90;;;;;;4771887;30;20353;-84
2023/04/16 05:39:09;;;;;;;54.07;21.67;;;9.20;99.90;;;;;;4757896;30;20088;-84
2023/04/16 05:41:35;;;;;;;59.03;21.73;;;9.20;99.90;;;;;;4757437;30;20047;-84
2023/04/16 05:44:01;;;;;;;47.77;20.13;;;9.10;99.90;;;;;;4771794;30;20708;-84
2023/04/16 05:46:26;;;;;;;50.37;21.20;;;9.10;99.90;;;;;;4772116;30;20094;-83
2023/04/16 05:48:52;;;;;;;50.37;20.43;;;9.10;99.90;;;;;;4757283;30;20503;-84
2023/04/16 05:51:18;;;;;;;51.37;20.30;;;9.10;99.90;;;;;;4771791;30;20117;-84
2023/04/16 05:53:44;;;;;;;48.23;22.67;;;9.10;99.90;;;;;;4771452;29;20095;-83
2023/04/16 05:56:10;;;;;;;65.83;23.17;;;9.10;99.90;;;;;;4742658;30;20349;-84
2023/04/16 05:58:36;;;;;;;46.30;21.80;;;9.10;99.90;;;;;;4757273;30;20059;-84
2023/04/16 06:01:02;;;;;;;53.50;20.37;;;9.10;99.90;;;;;;4757262;30;20051;-84
2023/04/16 06:03:27;;;;;;;53.53;21.73;;;9.10;99.90;;;;;;4742499;30;20116;-84
2023/04/16 06:05:53;;;;;;;55.07;21.13;;;9.20;99.90;;;;;;4759126;30;20304;-84
2023/04/16 06:08:19;;;;;;;51.53;23.13;;;9.20;99.90;;;;;;4774992;30;20051;-83
2023/04/16 06:10:46;;;;;;;56.43;22.37;;;9.20;99.90;;;;;;4745440;30;20142;-84
2023/04/16 06:13:12;;;;;;;41.27;19.17;;;9.20;99.90;;;;;;4746098;30;20098;-84
2023/04/16 06:15:38;;;;;;;38.60;18.90;;;9.20;99.90;;;;;;4745645;30;20332;-84
2023/04/16 06:18:04;;;;;;;46.67;20.50;;;9.20;99.90;;;;;;4775764;30;20047;-85
2023/04/16 06:20:30;;;;;;;48.63;19.03;;;9.20;99.90;;;;;;4761048;30;20059;-85
2023/04/16 06:22:55;;;;;;;48.63;20.53;;;9.30;99.90;;;;;;4745228;30;20308;-85
2023/04/16 06:25:21;;;;;;;53.87;20.17;;;9.30;99.90;;;;;;4760125;30;20297;-85
2023/04/16 06:27:47;;;;;;;53.67;20.10;;;9.20;99.90;;;;;;4745678;30;20066;-85
2023/04/16 06:30:14;;;;;;;50.70;19.93;;;9.30;99.90;;;;;;4745818;30;20055;-85
2023/04/16 06:32:42;;;;;;;51.67;19.53;;;9.30;99.90;;;;;;4746264;30;20062;-85
2023/04/16 06:35:08;;;;;;;52.03;21.27;;;9.30;99.90;;;;;;4775431;30;20630;-85
2023/04/16 06:37:34;;;;;;;51.70;19.40;;;9.30;99.90;;;;;;4760667;30;20301;-85
2023/04/16 06:40:00;;;;;;;49.03;20.30;;;9.30;99.90;;;;;;4745499;30;20297;-86
2023/04/16 06:42:26;;;;;;;47.20;20.83;;;9.30;99.90;;;;;;4745200;30;20237;-85
2023/04/16 06:44:52;;;;;;;50.87;20.53;;;9.30;99.90;;;;;;4745378;30;20062;-85
2023/04/16 06:47:17;;;;;;;48.37;19.70;;;9.30;99.90;;;;;;4759776;30;20051;-85
2023/04/16 06:49:43;;;;;;;44.47;19.17;;;9.30;99.90;;;;;;4760337;30;20134;-84
2023/04/16 06:52:09;;;;;;;47.93;19.97;;;9.40;99.90;;;;;;4760134;30;20051;-85
2023/04/16 06:54:35;;;;;;;47.70;19.60;;;9.30;99.90;;;;;;4744983;30;20143;-85
2023/04/16 06:57:01;;;;;;;53.43;20.63;;;9.40;99.90;;;;;;4759497;30;20725;-85
2023/04/16 06:59:26;;;;;;;50.00;18.43;;;9.40;99.90;;;;;;4744861;30;20112;-85
2023/04/16 07:01:52;;;;;;;51.03;18.83;;;9.40;99.90;;;;;;4759286;30;20091;-85
2023/04/16 07:04:18;;;;;;;44.20;18.30;;;9.40;99.90;;;;;;4759365;30;20133;-85
2023/04/16 07:06:44;;;;;;;49.17;18.37;;;9.40;99.90;;;;;;4745481;30;20465;-84
2023/04/16 07:09:09;;;;;;;43.30;18.37;;;9.50;99.90;;;;;;4744760;30;20051;-85
2023/04/16 07:11:36;;;;;;;46.93;17.67;;;9.50;99.90;;;;;;4759375;30;20051;-85
2023/04/16 07:14:02;;;;;;;54.50;19.23;;;9.50;99.90;;;;;;4759363;30;20047;-87
2023/04/16 07:16:27;;;;;;;44.33;17.80;;;9.50;99.90;;;;;;4772815;30;20289;-85
2023/04/16 07:18:53;;;;;;;50.97;19.27;;;9.60;99.90;;;;;;4759201;30;20289;-85
2023/04/16 07:21:19;;;;;;;45.67;18.80;;;9.60;99.90;;;;;;4774302;30;20138;-85
2023/04/16 07:23:45;;;;;;;53.27;18.83;;;9.60;99.90;;;;;;4759546;30;20477;-85
2023/04/16 07:26:11;;;;;;;55.07;18.93;;;9.60;99.90;;;;;;4759162;30;20293;-85
2023/04/16 07:28:37;;;;;;;45.30;17.93;;;9.60;99.90;;;;;;4758713;30;20055;-85
2023/04/16 07:31:02;;;;;;;52.07;18.13;;;9.70;99.90;;;;;;4759063;30;20055;-85
2023/04/16 07:33:28;;;;;;;50.80;18.47;;;9.70;99.90;;;;;;4759512;30;20055;-85
2023/04/16 07:35:54;;;;;;;38.93;16.87;;;9.70;99.90;;;;;;4759204;30;20057;-85
2023/04/16 07:38:20;;;;;;;41.40;16.87;;;9.70;99.90;;;;;;4744191;30;20523;-85
2023/04/16 07:40:45;;;;;;;35.97;16.07;;;9.80;99.90;;;;;;4758863;30;20128;-85
2023/04/16 07:43:12;;;;;;;36.63;16.70;;;9.80;99.90;;;;;;4744814;30;20097;-85
2023/04/16 07:45:38;;;;;;;40.90;15.90;;;9.80;99.90;;;;;;4758930;30;20492;-85
2023/04/16 07:48:04;;;;;;;37.27;16.87;;;9.90;99.90;;;;;;4758784;30;20307;-85
2023/04/16 07:50:30;;;;;;;37.47;16.13;;;9.90;99.90;;;;;;4758448;30;20489;-85
2023/04/16 07:52:55;;;;;;;40.47;17.83;;;9.90;99.90;;;;;;4773660;30;20354;-85
2023/04/16 07:55:21;;;;;;;42.53;16.43;;;9.90;99.90;;;;;;4758252;30;20055;-85
2023/04/16 07:57:47;;;;;;;34.13;15.17;;;9.90;99.90;;;;;;4758376;30;20531;-85
2023/04/16 08:00:13;;;;;;;39.03;16.30;;;10.00;99.90;;;;;;4773326;30;20059;-85
2023/04/16 08:02:39;;;;;;;45.70;16.33;;;10.00;99.90;;;;;;4773089;30;20492;-85
2023/04/16 08:05:06;;;;;;;45.53;16.50;;;10.10;99.90;;;;;;4773222;30;20695;-85
2023/04/16 08:07:31;;;;;;;44.87;16.77;;;10.10;99.90;;;;;;4758395;30;20309;-85
2023/04/16 08:09:57;;;;;;;44.53;16.13;;;10.20;99.90;;;;;;4758787;30;20824;-85
2023/04/16 08:12:23;;;;;;;40.60;16.17;;;10.20;99.90;;;;;;4758645;30;20138;-85
2023/04/16 08:14:49;;;;;;;35.57;15.03;;;10.20;99.90;;;;;;4743280;30;20112;-85
2023/04/16 08:17:15;;;;;;;41.60;15.63;;;10.20;99.90;;;;;;4773019;30;20055;-86
2023/04/16 08:19:42;;;;;;;40.07;14.87;;;10.30;99.90;;;;;;4773021;30;20055;-85
2023/04/16 08:22:08;;;;;;;38.47;15.03;;;10.30;99.90;;;;;;4758398;30;20059;-86
2023/04/16 08:24:34;;;;;;;40.13;17.10;;;10.40;99.90;;;;;;4773022;30;20642;-86
2023/04/16 08:26:59;;;;;;;37.90;15.00;;;10.40;99.90;;;;;;4772926;30;20055;-86
2023/04/16 08:29:25;;;;;;;37.07;15.37;;;10.40;99.90;;;;;;4772322;30;20177;-86
2023/04/16 08:31:52;;;;;;;39.73;15.70;;;10.40;99.90;;;;;;4743593;30;20047;-85
2023/04/16 08:34:18;;;;;;;33.23;15.00;;;10.40;99.90;;;;;;4772747;30;20052;-86
2023/04/16 08:36:44;;;;;;;31.97;15.60;;;10.50;99.90;;;;;;4758703;30;20845;-85
2023/04/16 08:39:10;;;;;;;39.17;16.43;;;10.50;99.90;;;;;;4772768;30;20098;-87
2023/04/16 08:41:40;;;;;;;43.37;16.47;;;10.40;99.90;;;;;;4758441;30;20320;-85
2023/04/16 08:44:13;;;;;;;46.70;18.00;;;10.40;99.90;;;;;;4772677;30;20137;-85
2023/04/16 08:46:40;;;;;;;44.93;17.70;;;10.40;99.90;;;;;;4773360;30;20293;-85
2023/04/16 08:49:07;;;;;;;33.93;15.80;;;10.50;99.90;;;;;;4757691;30;20320;-85
2023/04/16 08:51:37;;;;;;;39.47;16.20;;;10.50;99.90;;;;;;4757742;30;20297;-85
2023/04/16 08:54:13;;;;;;;36.23;15.70;;;10.60;99.90;;;;;;4772394;30;20340;-85
2023/04/16 08:56:41;;;;;;;37.63;15.53;;;10.70;99.90;;;;;;4773214;30;20304;-85
2023/04/16 08:59:08;;;;;;;38.17;15.27;;;10.70;99.90;;;;;;4757712;30;20334;-85
2023/04/16 09:01:34;;;;;;;41.57;16.13;;;10.70;99.90;;;;;;4772381;30;20300;-85
2023/04/16 09:04:01;;;;;;;38.10;14.87;;;10.70;99.90;;;;;;4757721;30;20687;-85
2023/04/16 09:06:27;;;;;;;45.40;16.27;;;10.80;99.90;;;;;;4757791;30;20755;-85
2023/04/16 09:08:54;;;;;;;40.37;16.20;;;10.80;99.90;;;;;;4773072;30;20315;-85
2023/04/16 09:11:20;;;;;;;36.57;16.60;;;10.90;99.90;;;;;;4742982;30;20378;-85
2023/04/16 09:13:46;;;;;;;36.33;15.60;;;11.00;99.90;;;;;;4757953;30;20289;-85
2023/04/16 09:16:13;;;;;;;38.63;15.73;;;11.00;99.90;;;;;;4757825;30;20392;-85
2023/04/16 09:18:39;;;;;;;30.73;14.53;;;11.10;99.90;;;;;;4757182;30;20423;-85
2023/04/16 09:21:08;;;;;;;34.33;14.83;;;11.20;99.90;;;;;;4772039;30;20305;-85
2023/04/16 09:23:35;;;;;;;26.93;13.30;;;11.30;99.90;;;;;;4757707;30;20624;-85
2023/04/16 09:26:03;;;;;;;38.47;15.27;;;11.30;99.90;;;;;;4772925;30;20310;-85
2023/04/16 09:28:42;;;;;;;31.93;15.50;;;11.40;99.90;;;;;;4757661;30;20371;-85
2023/04/16 09:31:16;;;;;;;37.87;17.13;;;11.30;99.90;;;;;;4772292;30;20293;-85
2023/04/16 09:33:43;;;;;;;33.07;16.53;;;11.30;99.90;;;;;;4757518;30;20311;-85
2023/04/16 09:36:09;;;;;;;34.03;16.17;;;11.40;99.90;;;;;;4742849;30;20305;-85
2023/04/16 09:38:56;;;;;;;28.60;15.00;;;11.40;99.90;;;;;;4757655;30;20385;-85
2023/04/16 09:41:27;;;;;;;30.03;16.30;;;11.40;99.90;;;;;;4775168;30;20320;-86
2023/04/16 09:43:57;;;;;;;29.00;15.23;;;11.40;99.90;;;;;;4776042;30;20383;-86
2023/04/16 09:46:39;;;;;;;31.43;14.37;;;11.40;99.90;;;;;;4775080;30;20297;-86
2023/04/16 09:49:16;;;;;;;37.00;16.10;;;11.60;99.90;;;;;;4776209;30;20309;-85
2023/04/16 09:51:44;;;;;;;33.87;14.67;;;11.60;99.90;;;;;;4761166;30;20289;-86
2023/04/16 09:54:10;;;;;;;29.03;14.97;;;11.60;99.90;;;;;;4760429;30;20784;-86
2023/04/16 09:56:43;;;;;;;30.30;16.00;;;11.60;99.90;;;;;;4745893;30;20339;-86
2023/04/16 09:59:19;;;;;;;25.70;14.03;;;11.60;99.90;;;;;;4775633;30;20055;-86
2023/04/16 10:01:45;;;;;;;32.33;14.53;;;11.70;99.90;;;;;;4775481;30;20289;-86
2023/04/16 10:04:11;;;;;;;30.33;15.33;;;11.80;99.90;;;;;;4761206;30;20888;-86
2023/04/16 10:06:37;;;;;;;34.53;14.97;;;11.90;99.90;;;;;;4775261;30;20388;-86
2023/04/16 10:09:07;;;;;;;33.87;16.83;;;12.00;99.90;;;;;;4760212;30;20048;-85
2023/04/16 10:11:32;;;;;;;35.57;15.70;;;12.10;99.90;;;;;;4760368;30;20093;-86
2023/04/16 10:13:58;;;;;;;41.57;16.90;;;12.10;99.90;;;;;;4759973;30;20329;-85
2023/04/16 10:16:24;;;;;;;34.63;15.50;;;12.00;99.90;;;;;;4761049;30;20055;-86
2023/04/16 10:18:51;;;;;;;45.43;17.90;;;12.10;99.90;;;;;;4746445;30;20055;-86
2023/04/16 10:21:18;;;;;;;32.63;15.90;;;12.10;99.90;;;;;;4774958;30;20384;-86
2023/04/16 10:23:44;;;;;;;30.17;14.60;;;12.10;99.90;;;;;;4760118;30;20908;-86
2023/04/16 10:26:10;;;;;;;28.40;13.77;;;12.00;99.90;;;;;;4760430;30;20391;-86
2023/04/16 10:28:36;;;;;;;31.73;15.70;;;12.10;99.90;;;;;;4745099;30;20063;-86
2023/04/16 10:31:05;;;;;;;37.70;16.13;;;12.10;99.90;;;;;;4760202;30;20055;-86
2023/04/16 10:33:35;;;;;;;36.90;19.63;;;12.10;99.90;;;;;;4774760;30;20861;-86
2023/04/16 10:36:12;;;;;;;34.73;15.50;;;12.20;99.90;;;;;;4774789;30;20300;-86
2023/04/16 10:38:45;;;;;;;40.67;16.13;;;12.20;99.90;;;;;;4774683;30;20301;-86
2023/04/16 10:41:11;;;;;;;30.23;14.77;;;12.20;99.90;;;;;;4775507;30;20372;-86
2023/04/16 10:43:50;;;;;;;31.30;14.17;;;12.10;99.90;;;;;;4760300;30;20293;-86
2023/04/16 10:46:17;;;;;;;30.07;15.33;;;12.10;99.90;;;;;;4774608;30;20304;-86
2023/04/16 10:48:42;;;;;;;35.37;16.23;;;12.10;99.90;;;;;;4759441;30;20318;-86
2023/04/16 10:51:32;;;;;;;31.43;16.73;;;12.10;99.90;;;;;;4759445;30;20297;-86
2023/04/16 10:54:02;;;;;;;31.50;15.80;;;12.10;99.90;;;;;;4774255;29;20063;-85
2023/04/16 10:56:30;;;;;;;36.27;16.40;;;12.10;99.90;;;;;;4774972;30;20878;-86
2023/04/16 10:58:56;;;;;;;33.93;16.50;;;12.00;99.90;;;;;;4774467;30;20296;-86
2023/04/16 11:01:36;;;;;;;32.17;15.73;;;12.10;99.90;;;;;;4774461;30;20300;-86
2023/04/16 11:04:26;;;;;;;33.47;15.90;;;12.10;99.90;;;;;;4774835;30;20055;-86
2023/04/16 11:07:12;;;;;;;35.67;17.03;;;12.20;99.90;;;;;;4766495;30;20293;-85
2023/04/16 11:10:03;;;;;;;34.77;16.30;;;12.20;99.90;;;;;;4759159;30;20407;-85
2023/04/16 11:12:38;;;;;;;27.47;15.60;;;12.30;99.90;;;;;;4759683;30;20786;-86
2023/04/16 11:15:05;;;;;;;35.53;17.30;;;12.30;99.90;;;;;;4760112;30;20308;-86
2023/04/16 11:17:35;;;;;;;35.40;16.70;;;12.30;99.90;;;;;;4789900;30;20289;-86
2023/04/16 11:20:02;;;;;;;33.83;17.77;;;12.30;99.90;;;;;;4774382;30;20307;-86
2023/04/16 11:22:28;;;;;;;36.37;16.90;;;12.30;99.90;;;;;;4759346;30;20293;-88
2023/04/16 11:24:56;;;;;;;39.33;17.57;;;12.20;99.90;;;;;;4759210;30;20814;-86
2023/04/16 11:27:23;;;;;;;30.87;15.87;;;12.20;99.90;;;;;;4758899;30;20407;-86
2023/04/16 11:30:05;;;;;;;29.50;15.97;;;12.30;99.90;;;;;;4773937;30;20340;-85
2023/04/16 11:32:32;;;;;;;30.70;16.17;;;12.20;99.90;;;;;;4774194;30;20312;-86
2023/04/16 11:35:02;;;;;;;30.27;15.43;;;12.20;99.90;;;;;;4759081;30;20296;-86
2023/04/16 11:37:36;;;;;;;29.93;15.33;;;12.20;99.90;;;;;;4758719;30;20782;-86
2023/04/16 11:40:05;;;;;;;29.63;16.00;;;12.20;99.90;;;;;;4759046;30;20816;-86
2023/04/16 11:42:32;;;;;;;33.13;14.97;;;12.30;99.90;;;;;;4773453;30;20289;-86
2023/04/16 11:44:59;;;;;;;33.17;16.20;;;12.30;99.90;;;;;;4773580;30;20296;-85
2023/04/16 11:47:26;;;;;;;29.13;15.27;;;12.20;99.90;;;;;;4758521;30;20297;-86
2023/04/16 11:49:52;;;;;;;31.80;15.47;;;12.20;99.90;;;;;;4758919;30;20359;-86
2023/04/16 11:52:28;;;;;;;31.67;15.90;;;12.30;99.90;;;;;;4758306;30;20304;-85
2023/04/16 11:54:55;;;;;;;26.73;13.97;;;12.30;99.90;;;;;;4773052;30;20362;-85
2023/04/16 11:57:28;;;;;;;26.13;15.07;;;12.30;99.90;;;;;;4774273;30;20288;-85
2023/04/16 11:59:58;;;;;;;28.97;15.43;;;12.40;99.90;;;;;;4744961;30;20784;-86
2023/04/16 12:02:35;;;;;;;26.97;14.67;;;12.50;99.90;;;;;;4758451;30;20293;-86
2023/04/16 12:05:02;;;;;;;28.13;15.33;;;12.50;99.90;;;;;;4758435;30;20811;-85
2023/04/16 12:07:28;;;;;;;27.97;14.07;;;12.60;99.90;;;;;;4744255;30;20354;-86
2023/04/16 12:10:06;;;;;;;26.27;14.80;;;12.60;99.90;;;;;;4773051;30;20809;-85
2023/04/16 12:12:32;;;;;;;26.03;14.87;;;12.70;99.90;;;;;;4773651;30;20507;-85
2023/04/16 12:14:58;;;;;;;26.43;15.00;;;12.80;99.90;;;;;;4772989;30;20289;-86
2023/04/16 12:17:25;;;;;;;23.63;14.30;;;12.80;99.90;;;;;;4772791;30;20097;-86
2023/04/16 12:20:04;;;;;;;24.77;15.40;;;12.90;99.90;;;;;;4759007;30;20304;-86
2023/04/16 12:22:35;;;;;;;24.87;14.10;;;13.00;99.90;;;;;;4772771;30;20293;-85
2023/04/16 12:25:03;;;;;;;25.57;15.03;;;13.00;99.90;;;;;;4773030;30;20296;-86
2023/04/16 12:27:50;;;;;;;23.23;13.47;;;13.00;99.90;;;;;;4772949;30;20308;-86
2023/04/16 12:30:21;;;;;;;25.50;14.47;;;13.00;99.90;;;;;;4758263;30;20309;-86
2023/04/16 12:32:48;;;;;;;30.67;15.43;;;13.00;99.90;;;;;;4773640;30;20375;-86
2023/04/16 12:35:28;;;;;;;26.23;14.03;;;13.00;99.90;;;;;;4758097;30;20307;-86